Time;durP1;ratioP1;P1;durP2;ratioP2;P2;SDS_P1;SDS_P2;PMS_P1;PMS_P2;Temp;Humidity;BMP_temperature;BMP_pressure;BME280_temperature;BME280_humidity;BME280_pressure;Samples;Min_cycle;Max_cycle;Signal;HPM_P1;HPM_P2
2021/06/09 00:01:40;;;;;;;23.15;20.65;;;;;;;;;;5057163;28;20039;-80
2021/06/09 00:04:25;;;;;;;20.38;18.40;;;;;;;;;;5061888;28;20499;-80
2021/06/09 00:07:11;;;;;;;20.50;18.27;;;;;;;;;;5058790;28;20513;-82
2021/06/09 00:09:56;;;;;;;22.95;18.38;;;;;;;;;;5068573;28;20032;-81
2021/06/09 00:12:42;;;;;;;19.52;17.60;;;;;;;;;;5042461;28;20138;-80
2021/06/09 00:15:27;;;;;;;21.92;18.52;;;;;;;;;;5056637;28;20020;-80
2021/06/09 00:18:12;;;;;;;19.95;17.90;;;;;;;;;;5062196;28;20036;-81
2021/06/09 00:20:58;;;;;;;21.38;19.17;;;;;;;;;;5058666;28;20041;-81
2021/06/09 00:23:43;;;;;;;21.75;19.48;;;;;;;;;;5056551;28;20056;-80
2021/06/09 00:26:28;;;;;;;19.02;17.08;;;;;;;;;;5045014;28;20124;-81
2021/06/09 00:29:14;;;;;;;20.65;18.50;;;;;;;;;;5054500;28;20028;-81
2021/06/09 00:31:59;;;;;;;21.98;19.77;;;;;;;;;;5058290;28;20253;-81
2021/06/09 00:34:44;;;;;;;20.02;17.95;;;;;;;;;;5044782;28;20441;-81
2021/06/09 00:37:29;;;;;;;18.55;16.65;;;;;;;;;;5043369;28;20060;-80
2021/06/09 00:40:16;;;;;;;19.30;17.20;;;;;;;;;;5049631;28;20021;-81
2021/06/09 00:43:01;;;;;;;20.35;18.25;;;;;;;;;;5047657;28;20433;-80
2021/06/09 00:45:48;;;;;;;19.95;18.00;;;;;;;;;;5051922;28;20044;-80
2021/06/09 00:48:34;;;;;;;20.10;17.13;;;;;;;;;;5047555;28;20039;-82
2021/06/09 00:51:19;;;;;;;18.05;16.15;;;;;;;;;;5055078;28;20020;-79
2021/06/09 00:54:05;;;;;;;18.80;16.80;;;;;;;;;;5049579;28;20079;-80
2021/06/09 00:56:51;;;;;;;20.35;16.83;;;;;;;;;;5050733;28;20025;-80
2021/06/09 00:59:37;;;;;;;20.25;18.30;;;;;;;;;;5046720;28;20069;-80
2021/06/09 01:02:22;;;;;;;17.52;15.65;;;;;;;;;;5034145;28;20036;-81
2021/06/09 01:05:07;;;;;;;16.90;15.20;;;;;;;;;;5053193;28;20024;-81
2021/06/09 01:07:52;;;;;;;19.50;17.58;;;;;;;;;;5050886;28;20382;-80
2021/06/09 01:10:38;;;;;;;18.02;16.13;;;;;;;;;;5050467;28;20043;-80
2021/06/09 01:13:24;;;;;;;21.42;16.63;;;;;;;;;;5043755;28;20036;-80
2021/06/09 01:16:09;;;;;;;20.85;17.20;;;;;;;;;;5051442;28;20013;-79
2021/06/09 01:18:54;;;;;;;19.17;17.25;;;;;;;;;;5051622;28;20028;-80
2021/06/09 01:21:40;;;;;;;17.75;15.90;;;;;;;;;;5054684;28;20047;-81
2021/06/09 01:24:25;;;;;;;20.05;18.13;;;;;;;;;;5055115;28;20762;-81
2021/06/09 01:27:11;;;;;;;19.88;17.92;;;;;;;;;;5057739;28;20024;-81
2021/06/09 01:29:56;;;;;;;21.17;19.02;;;;;;;;;;5044625;28;20027;-81
2021/06/09 01:32:42;;;;;;;21.35;19.05;;;;;;;;;;5050079;28;20028;-81
2021/06/09 01:35:27;;;;;;;22.00;18.65;;;;;;;;;;5045285;28;20032;-80
2021/06/09 01:38:12;;;;;;;21.08;18.98;;;;;;;;;;5054932;28;20136;-80
2021/06/09 01:40:58;;;;;;;21.83;18.52;;;;;;;;;;5033428;28;20024;-80
2021/06/09 01:43:43;;;;;;;19.73;17.67;;;;;;;;;;5050375;28;20016;-80
2021/06/09 01:46:28;;;;;;;18.85;16.95;;;;;;;;;;5055367;28;20047;-81
2021/06/09 01:49:14;;;;;;;20.63;18.42;;;;;;;;;;5053642;28;20035;-80
2021/06/09 01:51:59;;;;;;;18.10;15.80;;;;;;;;;;5050941;28;20028;-81
2021/06/09 01:54:45;;;;;;;19.67;16.90;;;;;;;;;;5042971;28;20025;-80
2021/06/09 01:57:31;;;;;;;18.98;17.00;;;;;;;;;;5045858;28;20059;-80
2021/06/09 02:00:18;;;;;;;19.98;17.92;;;;;;;;;;5043770;28;20476;-80
2021/06/09 02:03:03;;;;;;;18.58;16.67;;;;;;;;;;5051102;28;20027;-80
2021/06/09 02:05:48;;;;;;;17.63;15.82;;;;;;;;;;5041825;28;20471;-80
2021/06/09 02:08:34;;;;;;;21.20;18.73;;;;;;;;;;5052701;28;20109;-80
2021/06/09 02:11:19;;;;;;;18.77;16.38;;;;;;;;;;5054925;28;20029;-79
2021/06/09 02:14:04;;;;;;;19.55;17.23;;;;;;;;;;5059259;28;20027;-80
2021/06/09 02:16:50;;;;;;;19.25;17.30;;;;;;;;;;5051128;28;20035;-80
2021/06/09 02:19:35;;;;;;;18.67;15.35;;;;;;;;;;5044664;28;20499;-80
2021/06/09 02:22:20;;;;;;;16.52;14.93;;;;;;;;;;5027263;28;20071;-80
2021/06/09 02:25:06;;;;;;;19.02;16.90;;;;;;;;;;5046337;28;20052;-80
2021/06/09 02:27:52;;;;;;;17.48;15.68;;;;;;;;;;5043447;28;20032;-80
2021/06/09 02:30:37;;;;;;;21.80;18.08;;;;;;;;;;5050039;28;20017;-80
2021/06/09 02:33:23;;;;;;;18.55;16.55;;;;;;;;;;5035942;28;20044;-80
2021/06/09 02:36:08;;;;;;;19.35;17.35;;;;;;;;;;5057199;28;20020;-80
2021/06/09 02:38:55;;;;;;;22.52;20.23;;;;;;;;;;5045837;28;20056;-81
2021/06/09 02:41:40;;;;;;;22.88;19.58;;;;;;;;;;5035705;28;20035;-81
2021/06/09 02:44:26;;;;;;;21.95;19.75;;;;;;;;;;5049132;28;20060;-80
2021/06/09 02:47:13;;;;;;;21.83;19.50;;;;;;;;;;5047092;28;20393;-80
2021/06/09 02:49:59;;;;;;;22.13;19.77;;;;;;;;;;5047223;28;20013;-80
2021/06/09 02:52:49;;;;;;;20.70;17.95;;;;;;;;;;5051020;28;20028;-81
2021/06/09 02:55:42;;;;;;;19.92;18.00;;;;;;;;;;5055851;28;20075;-81
2021/06/09 02:58:43;;;;;;;21.58;19.48;;;;;;;;;;5050861;28;20029;-80
2021/06/09 03:01:31;;;;;;;18.13;16.27;;;;;;;;;;5062047;28;20377;-81
2021/06/09 03:04:18;;;;;;;20.20;18.17;;;;;;;;;;5050595;28;20155;-80
2021/06/09 03:07:04;;;;;;;22.30;20.08;;;;;;;;;;5054012;28;20045;-80
2021/06/09 03:09:55;;;;;;;21.65;18.95;;;;;;;;;;5054397;28;20017;-80
2021/06/09 03:13:03;;;;;;;21.33;19.15;;;;;;;;;;5045105;28;20017;-80
2021/06/09 03:15:59;;;;;;;20.35;18.25;;;;;;;;;;5054649;28;20028;-80
2021/06/09 03:18:47;;;;;;;20.20;18.10;;;;;;;;;;5040748;28;20464;-80
2021/06/09 03:21:39;;;;;;;20.58;17.88;;;;;;;;;;5054810;28;20048;-80
2021/06/09 03:24:27;;;;;;;19.52;17.63;;;;;;;;;;5062204;28;20379;-80
2021/06/09 03:27:18;;;;;;;19.25;17.13;;;;;;;;;;5055459;28;20401;-81
2021/06/09 03:30:10;;;;;;;20.77;18.67;;;;;;;;;;5048789;28;20032;-81
2021/06/09 03:32:58;;;;;;;19.98;18.00;;;;;;;;;;5050660;28;20031;-82
2021/06/09 03:35:55;;;;;;;19.05;17.05;;;;;;;;;;5058861;28;20107;-81
2021/06/09 03:38:49;;;;;;;17.70;15.73;;;;;;;;;;5051248;28;20029;-80
2021/06/09 03:41:46;;;;;;;19.13;17.17;;;;;;;;;;5055178;28;20112;-80
2021/06/09 03:44:34;;;;;;;21.85;18.10;;;;;;;;;;5049802;28;20023;-79
2021/06/09 03:47:20;;;;;;;19.20;17.08;;;;;;;;;;5051041;28;20036;-82
2021/06/09 03:50:06;;;;;;;20.70;18.67;;;;;;;;;;5046169;28;20028;-81
2021/06/09 03:52:52;;;;;;;19.98;17.88;;;;;;;;;;5055139;28;20035;-81
2021/06/09 03:55:38;;;;;;;21.02;18.80;;;;;;;;;;5053922;28;20387;-81
2021/06/09 03:58:24;;;;;;;20.52;17.48;;;;;;;;;;5036894;28;20027;-82
2021/06/09 04:01:10;;;;;;;19.70;17.50;;;;;;;;;;5047203;28;20032;-82
2021/06/09 04:03:56;;;;;;;19.80;17.70;;;;;;;;;;5063892;28;20375;-82
2021/06/09 04:06:42;;;;;;;23.02;16.67;;;;;;;;;;5056959;28;20437;-82
2021/06/09 04:09:28;;;;;;;18.63;16.33;;;;;;;;;;5049506;28;20504;-82
2021/06/09 04:12:13;;;;;;;19.05;17.15;;;;;;;;;;5048489;28;20055;-82
2021/06/09 04:14:59;;;;;;;17.75;16.02;;;;;;;;;;5046566;28;20048;-82
2021/06/09 04:17:45;;;;;;;19.92;17.92;;;;;;;;;;5041794;28;20021;-82
2021/06/09 04:20:31;;;;;;;17.73;15.93;;;;;;;;;;5050319;28;20055;-81
2021/06/09 04:23:16;;;;;;;18.35;16.55;;;;;;;;;;5048611;28;20430;-82
2021/06/09 04:26:02;;;;;;;18.88;17.05;;;;;;;;;;5041080;28;20016;-82
2021/06/09 04:28:48;;;;;;;19.05;17.05;;;;;;;;;;5044302;28;20087;-82
2021/06/09 04:31:33;;;;;;;18.98;17.00;;;;;;;;;;5048029;28;20025;-83
2021/06/09 04:34:18;;;;;;;18.13;16.33;;;;;;;;;;5057636;28;20025;-83
2021/06/09 04:37:04;;;;;;;19.85;17.80;;;;;;;;;;5047634;28;20081;-84
2021/06/09 04:39:49;;;;;;;18.55;16.65;;;;;;;;;;5041053;28;20104;-83
2021/06/09 04:42:35;;;;;;;20.42;17.95;;;;;;;;;;5041531;28;20021;-84
2021/06/09 04:45:21;;;;;;;20.23;18.20;;;;;;;;;;5048383;28;20028;-83
2021/06/09 04:48:14;;;;;;;19.17;16.95;;;;;;;;;;5053185;28;20032;-84
2021/06/09 04:50:59;;;;;;;18.20;16.30;;;;;;;;;;5054531;28;20017;-82
2021/06/09 04:53:45;;;;;;;20.67;16.95;;;;;;;;;;5048491;28;20031;-81
2021/06/09 04:56:34;;;;;;;18.42;16.50;;;;;;;;;;5059641;28;20024;-81
2021/06/09 04:59:20;;;;;;;21.95;17.88;;;;;;;;;;5052000;28;20021;-82
2021/06/09 05:02:05;;;;;;;17.83;15.95;;;;;;;;;;5040976;28;20032;-81
2021/06/09 05:04:51;;;;;;;18.42;16.05;;;;;;;;;;5064257;28;20056;-81
2021/06/09 05:07:36;;;;;;;18.38;16.60;;;;;;;;;;5052106;28;20029;-82
2021/06/09 05:10:22;;;;;;;19.65;16.73;;;;;;;;;;5049842;28;20059;-82
2021/06/09 05:13:15;;;;;;;19.77;17.67;;;;;;;;;;5046458;28;20036;-82
2021/06/09 05:16:04;;;;;;;18.48;16.60;;;;;;;;;;5060513;28;20031;-83
2021/06/09 05:18:52;;;;;;;20.50;17.50;;;;;;;;;;5047356;28;20029;-83
2021/06/09 05:21:39;;;;;;;18.90;16.95;;;;;;;;;;5033801;28;20049;-82
2021/06/09 05:24:26;;;;;;;17.67;15.30;;;;;;;;;;5021824;28;20056;-85
2021/06/09 05:27:12;;;;;;;18.63;15.68;;;;;;;;;;5018357;28;20021;-82
2021/06/09 05:29:58;;;;;;;17.73;15.20;;;;;;;;;;5022559;28;20008;-82
2021/06/09 05:32:44;;;;;;;17.88;16.08;;;;;;;;;;5021736;28;20471;-82
2021/06/09 05:35:30;;;;;;;18.50;16.52;;;;;;;;;;5024968;28;20039;-81
2021/06/09 05:38:17;;;;;;;18.35;16.45;;;;;;;;;;5041915;28;20109;-82
2021/06/09 05:41:02;;;;;;;17.02;15.32;;;;;;;;;;5040195;28;20069;-82
2021/06/09 05:43:47;;;;;;;18.65;16.83;;;;;;;;;;5020393;28;20490;-80
2021/06/09 05:46:32;;;;;;;17.67;15.63;;;;;;;;;;5037518;28;20400;-81
2021/06/09 05:49:21;;;;;;;16.83;15.10;;;;;;;;;;5025193;28;20028;-82
2021/06/09 05:52:07;;;;;;;17.35;14.32;;;;;;;;;;4998333;28;20021;-82
2021/06/09 05:54:53;;;;;;;18.92;16.67;;;;;;;;;;5016919;28;20033;-79
2021/06/09 05:57:38;;;;;;;15.82;14.18;;;;;;;;;;5034646;28;20029;-79
2021/06/09 06:00:25;;;;;;;16.63;15.02;;;;;;;;;;5031917;28;20365;-78
2021/06/09 06:03:12;;;;;;;15.77;14.27;;;;;;;;;;5038461;28;20035;-79
2021/06/09 06:05:58;;;;;;;15.98;14.25;;;;;;;;;;5020260;28;20056;-78
2021/06/09 06:08:44;;;;;;;15.43;13.77;;;;;;;;;;5016518;28;20028;-77
2021/06/09 06:11:29;;;;;;;16.48;14.77;;;;;;;;;;5002191;28;20029;-79
2021/06/09 06:14:14;;;;;;;17.95;16.05;;;;;;;;;;5016991;28;20017;-78
2021/06/09 06:17:01;;;;;;;21.33;19.27;;;;;;;;;;5013736;28;20136;-78
2021/06/09 06:19:49;;;;;;;20.20;16.52;;;;;;;;;;5028236;28;20682;-78
2021/06/09 06:22:35;;;;;;;16.23;14.53;;;;;;;;;;5047785;28;20028;-80
2021/06/09 06:25:23;;;;;;;13.65;11.93;;;;;;;;;;5050336;28;20025;-79
2021/06/09 06:28:08;;;;;;;15.88;13.65;;;;;;;;;;5050318;28;20451;-79
2021/06/09 06:30:54;;;;;;;18.55;14.73;;;;;;;;;;5037869;28;20241;-79
2021/06/09 06:33:40;;;;;;;15.80;14.07;;;;;;;;;;5062579;28;20020;-78
2021/06/09 06:36:26;;;;;;;15.27;13.02;;;;;;;;;;5068287;28;20050;-78
2021/06/09 06:39:11;;;;;;;16.17;12.65;;;;;;;;;;5062831;28;20054;-78
2021/06/09 06:41:56;;;;;;;17.42;15.32;;;;;;;;;;5055296;28;20198;-78
2021/06/09 06:44:42;;;;;;;16.80;14.52;;;;;;;;;;5054765;28;20013;-78
2021/06/09 06:47:27;;;;;;;17.88;14.38;;;;;;;;;;5049536;28;20044;-78
2021/06/09 06:50:13;;;;;;;17.08;13.90;;;;;;;;;;5053354;28;20024;-77
2021/06/09 06:53:04;;;;;;;16.83;14.02;;;;;;;;;;5056401;28;20024;-77
2021/06/09 06:55:49;;;;;;;15.48;13.85;;;;;;;;;;5051140;28;20111;-76
2021/06/09 06:58:34;;;;;;;16.05;14.35;;;;;;;;;;5050415;28;20088;-76
2021/06/09 07:01:21;;;;;;;24.33;20.63;;;;;;;;;;5072776;28;20067;-76
2021/06/09 07:04:07;;;;;;;17.52;14.65;;;;;;;;;;5053177;28;20032;-78
2021/06/09 07:06:52;;;;;;;15.98;13.55;;;;;;;;;;5054086;28;20099;-78
2021/06/09 07:09:37;;;;;;;15.23;13.52;;;;;;;;;;5055008;28;20123;-78
2021/06/09 07:12:22;;;;;;;16.33;12.95;;;;;;;;;;5051517;28;20090;-79
2021/06/09 07:15:08;;;;;;;14.52;13.00;;;;;;;;;;5045393;28;20026;-80
2021/06/09 07:17:56;;;;;;;12.85;11.35;;;;;;;;;;5068237;28;20027;-81
2021/06/09 07:20:42;;;;;;;14.68;12.38;;;;;;;;;;5065276;28;20037;-80
2021/06/09 07:23:27;;;;;;;13.55;11.95;;;;;;;;;;5054662;28;20028;-80
2021/06/09 07:26:16;;;;;;;17.02;12.15;;;;;;;;;;5052931;28;20017;-79
2021/06/09 07:29:01;;;;;;;13.50;11.95;;;;;;;;;;5065759;28;20109;-80
2021/06/09 07:31:47;;;;;;;16.88;15.10;;;;;;;;;;5057040;28;20036;-80
2021/06/09 07:34:32;;;;;;;15.95;12.93;;;;;;;;;;5065922;28;20024;-79
2021/06/09 07:37:19;;;;;;;16.50;11.98;;;;;;;;;;5051901;28;20051;-79
2021/06/09 07:40:07;;;;;;;15.70;12.43;;;;;;;;;;5051628;28;20081;-78
2021/06/09 07:42:54;;;;;;;13.40;11.68;;;;;;;;;;5055795;28;20113;-79
2021/06/09 07:45:40;;;;;;;15.38;11.63;;;;;;;;;;5042862;28;20016;-79
2021/06/09 07:48:27;;;;;;;16.75;11.50;;;;;;;;;;5049710;28;20024;-78
2021/06/09 07:51:14;;;;;;;15.55;12.63;;;;;;;;;;5059723;28;20036;-79
2021/06/09 07:54:01;;;;;;;14.98;12.50;;;;;;;;;;5039924;28;20028;-78
2021/06/09 07:56:46;;;;;;;13.85;12.45;;;;;;;;;;5059581;28;20078;-78
2021/06/09 07:59:33;;;;;;;16.95;13.88;;;;;;;;;;5059276;28;20108;-79
2021/06/09 08:02:19;;;;;;;16.77;13.05;;;;;;;;;;5056236;28;20503;-79
2021/06/09 08:05:04;;;;;;;17.48;15.52;;;;;;;;;;5052699;28;20036;-79
2021/06/09 08:07:50;;;;;;;15.60;13.90;;;;;;;;;;5066526;28;20016;-78
2021/06/09 08:10:35;;;;;;;18.20;14.65;;;;;;;;;;5055941;28;20101;-78
2021/06/09 08:13:21;;;;;;;16.70;15.02;;;;;;;;;;5060644;28;20031;-77
2021/06/09 08:16:14;;;;;;;17.38;14.38;;;;;;;;;;5053097;28;20379;-78
2021/06/09 08:19:02;;;;;;;15.65;14.05;;;;;;;;;;5056015;28;20058;-78
2021/06/09 08:21:47;;;;;;;16.17;14.47;;;;;;;;;;5055786;28;20051;-79
2021/06/09 08:24:33;;;;;;;20.05;16.02;;;;;;;;;;5058011;28;20035;-79
2021/06/09 08:27:18;;;;;;;16.65;14.98;;;;;;;;;;5070313;28;20387;-80
2021/06/09 08:30:04;;;;;;;19.80;14.25;;;;;;;;;;5058893;28;20028;-78
2021/06/09 08:32:49;;;;;;;17.30;15.52;;;;;;;;;;5069772;28;20007;-79
2021/06/09 08:35:35;;;;;;;18.58;16.65;;;;;;;;;;5058851;28;20029;-78
2021/06/09 08:38:20;;;;;;;17.17;15.38;;;;;;;;;;5062615;28;20035;-79
2021/06/09 08:41:06;;;;;;;21.33;18.27;;;;;;;;;;5063028;28;20035;-79
2021/06/09 08:43:52;;;;;;;19.08;16.98;;;;;;;;;;5058571;28;20024;-78
2021/06/09 08:46:37;;;;;;;17.90;15.52;;;;;;;;;;5050365;28;20032;-78
2021/06/09 08:49:22;;;;;;;19.08;17.05;;;;;;;;;;5066536;28;20069;-79
2021/06/09 08:52:12;;;;;;;19.08;16.98;;;;;;;;;;5056993;28;20028;-80
2021/06/09 08:54:59;;;;;;;19.23;17.17;;;;;;;;;;5064082;28;20032;-81
2021/06/09 08:57:44;;;;;;;18.98;15.98;;;;;;;;;;5061557;28;20371;-79
2021/06/09 09:00:32;;;;;;;18.48;14.43;;;;;;;;;;5063073;28;20039;-80
2021/06/09 09:03:17;;;;;;;16.60;14.93;;;;;;;;;;5066497;28;20055;-80
2021/06/09 09:06:03;;;;;;;20.02;18.02;;;;;;;;;;5054523;28;20500;-80
2021/06/09 09:08:48;;;;;;;21.02;17.17;;;;;;;;;;5075827;28;20462;-80
2021/06/09 09:11:33;;;;;;;17.48;15.00;;;;;;;;;;5068593;28;20028;-79
2021/06/09 09:14:19;;;;;;;17.10;14.77;;;;;;;;;;5061667;28;20073;-79
2021/06/09 09:17:07;;;;;;;27.80;23.02;;;;;;;;;;5055040;28;20032;-83
2021/06/09 09:20:02;;;;;;;19.05;15.70;;;;;;;;;;5057641;28;20040;-81
2021/06/09 09:22:48;;;;;;;18.33;14.98;;;;;;;;;;5050971;28;20040;-81
2021/06/09 09:25:33;;;;;;;14.93;13.50;;;;;;;;;;5057699;28;20025;-82
2021/06/09 09:28:23;;;;;;;15.68;13.70;;;;;;;;;;5041881;28;20020;-80
2021/06/09 09:31:16;;;;;;;16.98;15.18;;;;;;;;;;5068789;28;20079;-80
2021/06/09 09:34:01;;;;;;;15.88;14.18;;;;;;;;;;5048140;28;20059;-81
2021/06/09 09:37:00;;;;;;;16.27;13.73;;;;;;;;;;5055939;28;20020;-81
2021/06/09 09:39:51;;;;;;;;;;;;;;;;;;5060531;28;20029;-81
2021/06/09 09:42:36;;;;;;;15.73;14.07;;;;;;;;;;5058505;28;19911;-81
2021/06/09 09:45:22;;;;;;;16.60;14.38;;;;;;;;;;5061724;28;20028;-81
2021/06/09 09:48:18;;;;;;;19.63;16.50;;;;;;;;;;5053574;28;20030;-81
2021/06/09 09:51:04;;;;;;;27.65;14.32;;;;;;;;;;5052551;28;20467;-80
2021/06/09 09:53:54;;;;;;;16.77;14.65;;;;;;;;;;5055536;28;20372;-81
2021/06/09 09:56:40;;;;;;;17.25;15.38;;;;;;;;;;5056747;28;20371;-81
2021/06/09 09:59:26;;;;;;;18.70;16.10;;;;;;;;;;5057877;28;20028;-79
2021/06/09 10:02:14;;;;;;;17.50;15.65;;;;;;;;;;5063006;28;20016;-80
2021/06/09 10:05:09;;;;;;;24.48;22.13;;;;;;;;;;5052438;28;20111;-80
2021/06/09 10:08:06;;;;;;;19.40;17.40;;;;;;;;;;5052496;28;20030;-78
2021/06/09 10:10:52;;;;;;;17.48;15.40;;;;;;;;;;5051247;28;20666;-79
2021/06/09 10:13:37;;;;;;;19.92;17.23;;;;;;;;;;5057913;28;20119;-79
2021/06/09 10:16:30;;;;;;;19.35;15.70;;;;;;;;;;5050837;28;20021;-77
2021/06/09 10:19:16;;;;;;;18.65;15.88;;;;;;;;;;5054868;28;20028;-77
2021/06/09 10:22:04;;;;;;;21.23;17.92;;;;;;;;;;5057183;28;20031;-79
2021/06/09 10:24:57;;;;;;;19.08;16.15;;;;;;;;;;5061448;28;20030;-79
2021/06/09 10:27:48;;;;;;;17.58;15.68;;;;;;;;;;5062995;28;20020;-81
2021/06/09 10:30:34;;;;;;;17.63;15.43;;;;;;;;;;5050877;28;20020;-80
2021/06/09 10:33:20;;;;;;;20.77;17.00;;;;;;;;;;5053803;28;20085;-78
2021/06/09 10:36:05;;;;;;;20.08;18.17;;;;;;;;;;5050977;28;20050;-80
2021/06/09 10:38:51;;;;;;;19.73;17.20;;;;;;;;;;5052455;28;20346;-77
2021/06/09 10:41:38;;;;;;;19.02;15.85;;;;;;;;;;5052487;28;20016;-78
2021/06/09 10:44:25;;;;;;;21.20;18.23;;;;;;;;;;5051568;28;20467;-77
2021/06/09 10:47:18;;;;;;;18.05;16.17;;;;;;;;;;5063135;28;20116;-77
2021/06/09 10:50:07;;;;;;;19.70;17.15;;;;;;;;;;5053075;28;20029;-77
2021/06/09 10:52:52;;;;;;;;;;;;;;;;;;5052316;28;20453;-77
2021/06/09 10:55:37;;;;;;;19.60;17.60;;;;;;;;;;5053231;28;19904;-77
2021/06/09 10:58:24;;;;;;;19.70;16.85;;;;;;;;;;5055072;28;20017;-81
2021/06/09 11:01:10;;;;;;;24.65;17.65;;;;;;;;;;5038433;28;20028;-78
2021/06/09 11:03:57;;;;;;;18.55;16.70;;;;;;;;;;5057283;28;20052;-79
2021/06/09 11:06:42;;;;;;;18.33;16.15;;;;;;;;;;5063779;28;20056;-78
2021/06/09 11:09:29;;;;;;;18.10;15.73;;;;;;;;;;5053775;28;20024;-78
2021/06/09 11:12:14;;;;;;;15.15;13.05;;;;;;;;;;5043479;28;20032;-78
2021/06/09 11:15:00;;;;;;;15.73;13.98;;;;;;;;;;5053594;28;20342;-78
2021/06/09 11:17:45;;;;;;;15.57;13.30;;;;;;;;;;5054724;28;20483;-79
2021/06/09 11:20:37;;;;;;;15.60;13.75;;;;;;;;;;5067371;28;20048;-79
2021/06/09 11:23:29;;;;;;;16.55;14.82;;;;;;;;;;5050510;28;20028;-79
2021/06/09 11:26:26;;;;;;;18.38;15.32;;;;;;;;;;5057907;28;20056;-78
2021/06/09 11:29:27;;;;;;;21.30;13.73;;;;;;;;;;5065763;28;20836;-79
2021/06/09 11:32:19;;;;;;;15.57;13.52;;;;;;;;;;5056200;28;20021;-79
2021/06/09 11:35:05;;;;;;;18.45;12.63;;;;;;;;;;5061419;28;20038;-79
2021/06/09 11:38:09;;;;;;;13.80;12.40;;;;;;;;;;5062111;28;20024;-78
2021/06/09 11:41:04;;;;;;;14.05;12.05;;;;;;;;;;5066280;28;20099;-78
2021/06/09 11:43:49;;;;;;;14.23;11.63;;;;;;;;;;5051658;28;20078;-79
2021/06/09 11:46:36;;;;;;;13.57;11.32;;;;;;;;;;5066167;28;20024;-80
2021/06/09 11:49:22;;;;;;;13.43;11.43;;;;;;;;;;5067973;28;20020;-79
2021/06/09 11:52:08;;;;;;;12.57;10.90;;;;;;;;;;5067317;28;20042;-77
2021/06/09 11:55:10;;;;;;;12.68;11.43;;;;;;;;;;5057864;28;20228;-77
2021/06/09 11:58:09;;;;;;;12.65;11.05;;;;;;;;;;5061206;28;20096;-78
2021/06/09 12:00:54;;;;;;;;;;;;;;;;;;5061642;28;20082;-77
2021/06/09 12:03:40;;;;;;;13.40;11.80;;;;;;;;;;5055556;28;20256;-78
2021/06/09 12:06:25;;;;;;;13.25;11.85;;;;;;;;;;5059309;28;20020;-77
2021/06/09 12:09:11;;;;;;;13.35;11.98;;;;;;;;;;5052448;28;20035;-77
2021/06/09 12:11:58;;;;;;;14.07;11.48;;;;;;;;;;5060556;28;20101;-78
2021/06/09 12:14:48;;;;;;;13.77;11.65;;;;;;;;;;5072953;28;20027;-79
2021/06/09 12:17:35;;;;;;;14.00;12.02;;;;;;;;;;5056325;28;20690;-78
2021/06/09 12:20:20;;;;;;;15.50;11.90;;;;;;;;;;5050462;28;20119;-78
2021/06/09 12:23:08;;;;;;;15.43;11.63;;;;;;;;;;5055472;28;20071;-77
2021/06/09 12:25:54;;;;;;;13.20;11.90;;;;;;;;;;5057012;28;20027;-79
2021/06/09 12:28:42;;;;;;;13.05;11.73;;;;;;;;;;5055613;28;20031;-78
2021/06/09 12:31:27;;;;;;;13.18;11.75;;;;;;;;;;5050964;28;20081;-80
2021/06/09 12:34:31;;;;;;;22.10;13.43;;;;;;;;;;5055565;28;20056;-79
2021/06/09 12:37:17;;;;;;;13.40;11.63;;;;;;;;;;5060015;28;20059;-80
2021/06/09 12:40:05;;;;;;;12.68;11.05;;;;;;;;;;5051578;28;20403;-79
2021/06/09 12:42:51;;;;;;;12.13;10.35;;;;;;;;;;5056359;28;20084;-82
2021/06/09 12:45:38;;;;;;;11.35;9.77;;;;;;;;;;5053132;28;20815;-79
2021/06/09 12:48:26;;;;;;;11.85;9.98;;;;;;;;;;5060047;28;20040;-80
2021/06/09 12:51:13;;;;;;;15.52;10.90;;;;;;;;;;5056834;28;20474;-79
2021/06/09 12:53:59;;;;;;;15.20;13.57;;;;;;;;;;5061473;28;20162;-79
2021/06/09 12:56:46;;;;;;;11.18;9.57;;;;;;;;;;5052571;28;20052;-77
2021/06/09 12:59:38;;;;;;;9.73;8.73;;;;;;;;;;5055850;28;20063;-78
2021/06/09 13:02:23;;;;;;;12.20;9.85;;;;;;;;;;5050613;28;20025;-79
2021/06/09 13:05:16;;;;;;;10.52;9.38;;;;;;;;;;5059971;28;20048;-79
2021/06/09 13:08:11;;;;;;;11.15;9.07;;;;;;;;;;5062885;28;20028;-76
2021/06/09 13:11:01;;;;;;;9.60;8.40;;;;;;;;;;5059410;28;20064;-79
2021/06/09 13:13:47;;;;;;;11.48;7.85;;;;;;;;;;5062370;28;20025;-79
2021/06/09 13:16:37;;;;;;;10.13;8.40;;;;;;;;;;5052842;28;20086;-80
2021/06/09 13:19:23;;;;;;;9.15;7.55;;;;;;;;;;5057079;28;20113;-79
2021/06/09 13:22:08;;;;;;;8.13;7.07;;;;;;;;;;5056610;28;20127;-79
2021/06/09 13:24:53;;;;;;;11.85;7.97;;;;;;;;;;5065679;28;20051;-78
2021/06/09 13:27:39;;;;;;;11.40;8.85;;;;;;;;;;5054711;28;20024;-79
2021/06/09 13:30:24;;;;;;;10.32;8.75;;;;;;;;;;5060858;28;20027;-79
2021/06/09 13:33:10;;;;;;;9.50;8.05;;;;;;;;;;5056398;28;20023;-79
2021/06/09 13:35:55;;;;;;;14.18;7.93;;;;;;;;;;5057773;28;20074;-77
2021/06/09 13:38:41;;;;;;;12.57;7.88;;;;;;;;;;5051469;28;20020;-78
2021/06/09 13:41:26;;;;;;;10.80;8.52;;;;;;;;;;5052625;28;20134;-78
2021/06/09 13:44:12;;;;;;;11.15;8.10;;;;;;;;;;5052656;28;20017;-78
2021/06/09 13:46:57;;;;;;;8.82;7.10;;;;;;;;;;5053527;28;20024;-77
2021/06/09 13:49:43;;;;;;;8.63;6.00;;;;;;;;;;5056600;28;20115;-78
2021/06/09 13:52:29;;;;;;;8.10;5.47;;;;;;;;;;5058406;28;20027;-79
2021/06/09 13:55:18;;;;;;;7.80;5.75;;;;;;;;;;5055118;28;20382;-77
2021/06/09 13:58:04;;;;;;;8.65;6.07;;;;;;;;;;5059523;28;20036;-77
2021/06/09 14:00:50;;;;;;;8.30;5.55;;;;;;;;;;5062035;28;20115;-79
2021/06/09 14:03:35;;;;;;;7.75;5.45;;;;;;;;;;5059541;28;20093;-79
2021/06/09 14:06:20;;;;;;;8.95;6.35;;;;;;;;;;5051363;28;20028;-77
2021/06/09 14:09:07;;;;;;;6.95;5.63;;;;;;;;;;5051080;28;20013;-78
2021/06/09 14:12:00;;;;;;;9.48;6.78;;;;;;;;;;5056228;28;20024;-78
2021/06/09 14:14:46;;;;;;;8.80;6.88;;;;;;;;;;5054098;28;20036;-77
2021/06/09 14:17:31;;;;;;;9.80;6.93;;;;;;;;;;5050677;28;20032;-76
2021/06/09 14:20:18;;;;;;;10.32;7.22;;;;;;;;;;5049361;28;20445;-78
2021/06/09 14:23:04;;;;;;;10.35;7.25;;;;;;;;;;5052467;28;20033;-76
2021/06/09 14:25:50;;;;;;;8.57;7.60;;;;;;;;;;5054614;28;20025;-76
2021/06/09 14:28:37;;;;;;;12.63;7.63;;;;;;;;;;5051022;28;20016;-77
2021/06/09 14:31:23;;;;;;;9.80;7.05;;;;;;;;;;5057355;28;20063;-76
2021/06/09 14:34:18;;;;;;;8.30;7.15;;;;;;;;;;5046548;28;20498;-75
2021/06/09 14:37:09;;;;;;;8.05;6.90;;;;;;;;;;5064142;28;20110;-76
2021/06/09 14:40:06;;;;;;;8.35;7.00;;;;;;;;;;5052129;28;20132;-76
2021/06/09 14:46:22;;;;;;;9.75;7.05;;;;;;;;;;4992601;28;20404;-77
2021/06/09 14:49:25;;;;;;;9.27;7.15;;;;;;;;;;5054516;28;20036;-78
2021/06/09 14:52:18;;;;;;;8.80;6.75;;;;;;;;;;5053198;28;20021;-77
2021/06/09 14:55:04;;;;;;;10.35;7.45;;;;;;;;;;5062854;28;20055;-77
2021/06/09 14:57:50;;;;;;;8.68;7.30;;;;;;;;;;5059725;28;20012;-74
2021/06/09 15:00:35;;;;;;;8.82;7.25;;;;;;;;;;5051829;28;20025;-76
2021/06/09 15:03:20;;;;;;;8.30;6.75;;;;;;;;;;5057001;28;20360;-76
2021/06/09 15:06:07;;;;;;;13.68;7.47;;;;;;;;;;5048640;28;20020;-76
2021/06/09 15:08:52;;;;;;;9.82;7.45;;;;;;;;;;5055157;28;20413;-76
2021/06/09 15:11:37;;;;;;;7.97;7.18;;;;;;;;;;5048118;28;20166;-77
2021/06/09 15:14:22;;;;;;;10.80;7.53;;;;;;;;;;5051989;28;20028;-75
2021/06/09 15:17:07;;;;;;;10.95;8.30;;;;;;;;;;5050533;28;20368;-77
2021/06/09 15:19:53;;;;;;;10.23;7.82;;;;;;;;;;5050886;28;20041;-76
2021/06/09 15:22:38;;;;;;;12.30;10.73;;;;;;;;;;5050630;28;20044;-77
2021/06/09 15:25:23;;;;;;;18.08;14.48;;;;;;;;;;5053734;28;20062;-76
2021/06/09 15:28:08;;;;;;;13.63;10.85;;;;;;;;;;5052251;28;20031;-76
2021/06/09 15:30:54;;;;;;;10.15;8.30;;;;;;;;;;5055720;28;20058;-75
2021/06/09 15:33:39;;;;;;;10.60;7.80;;;;;;;;;;5051823;28;20017;-76
2021/06/09 15:36:25;;;;;;;9.52;7.80;;;;;;;;;;5052099;28;20386;-76
2021/06/09 15:39:11;;;;;;;7.90;6.95;;;;;;;;;;5052711;28;20078;-78
2021/06/09 15:41:57;;;;;;;10.85;7.28;;;;;;;;;;5049289;28;20851;-78
2021/06/09 15:44:42;;;;;;;10.45;7.57;;;;;;;;;;5053586;28;20016;-77
2021/06/09 15:47:28;;;;;;;10.50;7.70;;;;;;;;;;5047418;28;20019;-77
2021/06/09 15:50:13;;;;;;;11.15;8.00;;;;;;;;;;5051811;28;20383;-79
2021/06/09 15:52:59;;;;;;;12.57;8.30;;;;;;;;;;5054471;28;20107;-79
2021/06/09 15:55:44;;;;;;;11.45;7.82;;;;;;;;;;5063586;28;20016;-80
2021/06/09 15:58:29;;;;;;;10.02;8.20;;;;;;;;;;5048541;28;20025;-78
2021/06/09 16:01:14;;;;;;;11.75;7.75;;;;;;;;;;5039178;28;20036;-79
2021/06/09 16:03:59;;;;;;;10.85;7.95;;;;;;;;;;5062012;28;20524;-78
2021/06/09 16:06:45;;;;;;;10.00;7.93;;;;;;;;;;5057192;28;20386;-78
2021/06/09 16:09:30;;;;;;;11.50;8.05;;;;;;;;;;5060031;28;20024;-77
2021/06/09 16:12:16;;;;;;;8.35;7.03;;;;;;;;;;5059063;28;20068;-79
2021/06/09 16:15:01;;;;;;;9.00;7.22;;;;;;;;;;5061421;28;20107;-78
2021/06/09 16:17:46;;;;;;;9.68;8.43;;;;;;;;;;5062478;28;20494;-78
2021/06/09 16:20:32;;;;;;;11.60;8.38;;;;;;;;;;5051322;28;20048;-80